Tropical Cyclones
[Index]
Main Index Home Page Stock Weather Photos Extreme Storms Discussion Storm News and Storm Chasing Reports Tropical Cyclones / Hurricanes / Typhoons Weather Data and Links Wild Fires / Bushfires Weather Observation Techniques Weather Picture Catalogue Tornado Pictures and Reports Stock Video Footage and DVDs for sale
Season 2002-2003 Tropical Cyclone HARRIET Track Map
Season 2002-2003 Summaries: [BoM-AU] [JTWC-AU] [JTWC-SIO] [JTWC-SPAC] [JTWC-SH]
<<- Previous TC | JTWC 2002-2003 Season | Next TC ->>

click for intensity scale information  Lat/long Grid: Show Hide

 Date Labels: Show Hide

Joint Typhoon Warning Centre Cyclone Data

Name: HARRIET

01 Mar 2003 06:00 UTC to 09 Mar 2003 12:00 UTC

    date/time    lat    long     hPa   cat  kts
2003-03-01 06   12.8   102.8    1004         20          
2003-03-01 12   13.1   103.6    1004         20          
2003-03-01 18   13.4   104.7    1002         25          
2003-03-02 00   13.8   105.9    1002         25          
2003-03-02 06   14.1   106.7    1000         30          
2003-03-02 12   14.6   107.5    1000         30          
2003-03-02 18   14.8   108.4    1000         30          
2003-03-03 00   14.8   109.3    1000         30          
2003-03-03 06   14.7   110.1    1000         30          
2003-03-03 12   14.7   110.9    1000         30          
2003-03-03 18   14.7   111.5    1000         30          
2003-03-04 00   14.8   112.0    1000         30          
2003-03-04 06   14.9   112.5    1000         30          
2003-03-04 12   15.0   113.3     997         35          
2003-03-04 18   15.2   114.1     997         35          
2003-03-05 00   15.8   114.8     997         35          
2003-03-05 06   16.3   115.3     997         35          
2003-03-05 12   16.8   115.7    1000         30          
2003-03-05 18   17.4   116.2    1000         30          
2003-03-06 00   18.1   115.8     997         35          
2003-03-06 06   18.6   115.5     997         35          
2003-03-06 12   19.0   115.2     997         35          
2003-03-06 18   19.1   114.8     997         35          
2003-03-07 00   19.0   114.5     997         35          
2003-03-07 06   19.0   114.2     997         35          
2003-03-07 12   19.3   113.8     997         35          
2003-03-07 18   19.4   113.4    1000         30          
2003-03-08 00   19.6   113.0    1000         30          
2003-03-08 06   19.9   112.7    1000         30          
2003-03-08 12   20.2   112.4    1000         30          
2003-03-08 18   20.6   111.8    1000         30          
2003-03-09 00   21.1   110.8    1002         25          
2003-03-09 06   22.2   109.5    1002         25          
2003-03-09 12   23.7   108.5    1002         25          
Winds are 1-min average.

Tropical cyclone tracks developed by Michael Bath using data from the Joint Typhoon Warning Centre Best Tracks and Google Maps.


[Australian Severe Weather index] [Copyright Notice] [Email Contacts] [Search This Site] [Privacy Policy]
Document: tropical_cyclone_harriet.htm Updated: 28 June 2017